Data for 07/31/2010

Time Sea-Level Adjusted Pressure Absolute Pressure Temperature Relative Humidity Dew Point   
(mb) (inHg) (mb) (inHg) (C) (F) (%) (C) (F)
00:05 1020 30.12 849 25.07 20.2 68.4 47 8.7 47.6
00:10 1019 30.09 849 25.07 20.4 68.8 47 8.8 47.8
00:15 1019 30.09 849 25.07 20.3 68.5 48 9.2 48.5
00:20 1020 30.12 849 25.07 20 68 51 9.6 49.3
00:25 1020 30.12 849 25.07 19.5 67.1 53 9.8 49.6
00:30 1020 30.12 849 25.07 19.3 66.7 52 9.3 48.8
00:35 1020 30.12 849 25.07 19.4 67 49 8.7 47.7
00:40 1020 30.12 849 25.07 19.8 67.6 48 8.6 47.4
00:45 1020 30.12 849 25.07 20 67.9 47 8.6 47.4
00:50 1020 30.12 849 25.07 20 68 47 8.5 47.4
00:55 1020 30.12 849 25.07 19.9 67.9 48 8.8 47.8
01:00 1020 30.12 849 25.07 19.6 67.3 50 9 48.1
01:05 1019 30.09 849 25.07 19.4 67 49 8.7 47.7
01:10 1019 30.09 849 25.07 19.6 67.2 48 8.4 47.1
01:15 1019 30.09 849 25.07 19.7 67.5 47 8.2 46.8
01:20 1019 30.09 848 25.04 19.7 67.5 52 9.7 49.4
01:25 1019 30.09 848 25.04 19.4 66.8 54 9.9 49.8
01:30 1019 30.09 848 25.04 19.1 66.3 54 9.6 49.3
01:35 1019 30.09 848 25.04 19 66.3 53 9.3 48.7
01:40 1019 30.09 848 25.04 18.8 65.9 54 9.4 48.9
01:45 1019 30.09 848 25.04 18.9 66 50 8.4 47.2
01:50 1019 30.09 848 25.04 19.3 66.7 49 8.3 47
01:55 1019 30.09 848 25.04 19.3 66.7 50 8.6 47.5
02:00 1019 30.09 848 25.04 19.3 66.8 49 8.4 47.2
02:05 1019 30.09 848 25.04 19.3 66.7 49 8.5 47.3
02:10 1019 30.09 848 25.04 19.1 66.3 49 8.1 46.7
02:15 1018 30.06 848 25.04 19.1 66.3 48 7.9 46.3
02:20 1018 30.06 848 25.04 19.2 66.6 47 7.8 46.1
02:25 1018 30.06 848 25.04 19.3 66.7 46 7.6 45.6
02:30 1018 30.06 848 25.04 19.4 66.9 46 7.7 45.8
02:35 1018 30.06 848 25.04 19.3 66.8 47 7.7 45.9
02:40 1018 30.06 848 25.04 19.4 66.8 46 7.5 45.6
02:45 1018 30.06 848 25.04 19.4 66.9 47 7.9 46.2
02:50 1018 30.06 848 25.04 19.2 66.5 51 9 48.2
02:55 1018 30.06 848 25.04 18.6 65.5 49 7.8 46.1
03:00 1018 30.06 848 25.04 19 66.1 48 7.9 46.2
03:05 1018 30.06 848 25.04 18.9 66.1 50 8.4 47.2
03:10 1018 30.06 848 25.04 18.5 65.3 52 8.5 47.2
03:15 1018 30.06 848 25.04 18.5 65.3 50 8.1 46.6
03:20 1018 30.06 847 25.01 18.3 65 53 8.6 47.4
03:25 1018 30.06 847 25.01 17.9 64.2 53 8.4 47.1
03:30 1018 30.06 847 25.01 17.9 64.2 52 7.9 46.1
03:35 1018 30.06 847 25.01 18.2 64.8 52 8.3 47
03:40 1018 30.06 847 25.01 18.4 65.1 52 8.4 47.2
03:45 1018 30.06 847 25.01 18.7 65.6 48 7.7 45.8
03:50 1018 30.06 847 25.01 18.8 65.8 49 7.8 46.1
03:55 1018 30.06 847 25.01 18.7 65.6 48 7.7 45.8
04:00 1018 30.06 847 25.01 18.7 65.7 49 7.8 46.1
04:05 1018 30.06 848 25.04 18.5 65.4 50 8.1 46.7
04:10 1018 30.06 848 25.04 18.5 65.3 49 7.6 45.6
04:15 1018 30.06 848 25.04 18.4 65.1 50 7.8 46
04:20 1018 30.06 848 25.04 18 64.4 52 8.1 46.6
04:25 1018 30.06 847 25.01 17.7 63.8 50 7.3 45.2
04:30 1018 30.06 847 25.01 18.2 64.7 50 7.6 45.8
04:35 1018 30.06 847 25.01 18.1 64.6 51 7.8 46
04:40 1018 30.06 847 25.01 17.9 64.1 51 7.8 46
04:45 1018 30.06 847 25.01 17.7 63.8 52 7.9 46.2
04:50 1018 30.06 847 25.01 17.4 63.4 53 7.9 46.2
04:55 1018 30.06 847 25.01 17.1 62.7 54 7.7 45.9
05:00 1018 30.06 847 25.01 16.9 62.5 54 7.6 45.8
05:05 1018 30.06 847 25.01 16.9 62.4 57 8.4 47.2
05:10 1018 30.06 847 25.01 16.8 62.2 54 7.5 45.5
05:15 1018 30.06 847 25.01 16.9 62.3 55 7.9 46.2
05:20 1018 30.06 847 25.01 16.5 61.6 57 8.1 46.6
05:25 1018 30.06 847 25.01 16.2 61.1 60 8.5 47.2
05:30 1018 30.06 847 25.01 16.1 61 57 7.7 45.9
05:35 1018 30.06 847 25.01 16.1 61 57 7.8 46
05:40 1018 30.06 847 25.01 16.2 61.1 57 7.7 45.9
05:45 1018 30.06 847 25.01 16.1 61 57 7.7 45.9
05:50 1018 30.06 847 25.01 16.3 61.3 57 7.7 45.9
05:55 1018 30.06 847 25.01 16.1 61 57 7.7 45.8
06:00 1018 30.06 847 25.01 16 60.8 57 7.7 45.8
06:05 1018 30.06 847 25.01 16 60.8 57 7.7 45.8
06:10 1018 30.06 848 25.04 16 60.8 60 8.4 47.2
06:15 1018 30.06 848 25.04 16 60.8 63 8.9 48.1
06:20 1018 30.06 848 25.04 15.7 60.2 64 8.9 48
06:25 1018 30.06 848 25.04 15 59 63 8.1 46.6
06:30 1018 30.06 848 25.04 14.9 58.9 64 8.3 47
06:35 1019 30.09 848 25.04 15.1 59.2 61 7.8 46
06:40 1019 30.09 848 25.04 15.3 59.6 61 7.9 46.2
06:45 1019 30.09 848 25.04 15.2 59.4 61 7.8 46.1
06:50 1019 30.09 848 25.04 15.1 59.1 62 8 46.3
06:55 1019 30.09 848 25.04 15.1 59.1 62 7.9 46.3
07:00 1019 30.09 848 25.04 15.2 59.3 61 7.8 46
07:05 1019 30.09 848 25.04 15.3 59.6 61 7.9 46.3
07:10 1019 30.09 848 25.04 15.5 60 60 8 46.4
07:15 1019 30.09 848 25.04 15.8 60.4 60 8.2 46.8
07:20 1019 30.09 848 25.04 16 60.7 61 8.4 47.2
07:25 1019 30.09 848 25.04 15.9 60.6 61 8.6 47.5
07:30 1019 30.09 848 25.04 16.4 61.6 60 8.6 47.5
07:35 1019 30.09 848 25.04 16.5 61.6 60 8.9 48
07:40 1019 30.09 848 25.04 16.6 61.9 60 9 48.1
07:45 1019 30.09 848 25.04 16.7 62.1 59 8.7 47.7
07:50 1019 30.09 848 25.04 16.9 62.5 59 9 48.1
07:55 1019 30.09 848 25.04 17.2 62.9 57 8.6 47.5
08:00 1019 30.09 848 25.04 17.6 63.8 56 8.9 47.9
08:05 1019 30.09 848 25.04 17.6 63.7 56 8.9 48
08:10 1019 30.09 848 25.04 17.8 64 57 9.2 48.5
08:15 1019 30.09 848 25.04 18.5 65.2 52 8.5 47.4
08:20 1019 30.09 848 25.04 19.4 66.8 51 9 48.2
08:25 1019 30.09 848 25.04 19.4 66.8 51 9.2 48.6
08:30 1019 30.09 848 25.04 19.6 67.2 51 9.4 48.9
08:35 1019 30.09 848 25.04 20.5 68.8 48 9.2 48.6
08:40 1019 30.09 848 25.04 21 69.9 47 9.4 48.9
08:45 1019 30.09 848 25.04 20.9 69.6 49 9.9 49.8
08:50 1019 30.09 848 25.04 20.5 68.9 49 9.7 49.4
08:55 1019 30.09 848 25.04 21.3 70.4 46 9.5 49.1
09:00 1019 30.09 848 25.04 21.9 71.4 44 9.4 48.8
09:05 1019 30.09 848 25.04 22.3 72.2 43 9.3 48.7
09:10 1019 30.09 848 25.04 22.4 72.4 40 8.5 47.2
09:15 1019 30.09 848 25.04 22.4 72.2 43 9.4 49
09:20 1019 30.09 848 25.04 22 71.5 46 10 50.1
09:25 1019 30.09 848 25.04 21.8 71.2 44 9.2 48.6
09:30 1019 30.09 848 25.04 21.9 71.5 44 9.4 48.9
09:35 1019 30.09 848 25.04 22.3 72.2 42 8.9 48
09:40 1019 30.09 848 25.04 22.6 72.7 43 9.7 49.4
09:45 1019 30.09 848 25.04 22.4 72.2 44 9.6 49.3
09:50 1019 30.09 848 25.04 22.8 73 41 8.9 48
09:55 1019 30.09 848 25.04 23.5 74.4 38 8.6 47.4
10:00 1019 30.09 848 25.04 24.1 75.4 35 7.8 46.1
10:05 1019 30.09 848 25.04 25.2 77.3 35 8.9 48.1
10:10 1019 30.09 848 25.04 24.4 76 37 9 48.2
10:15 1019 30.09 848 25.04 23.9 75 38 9 48.1
10:20 1019 30.09 848 25.04 23.8 74.8 36 8.1 46.6
10:25 1018 30.06 848 25.04 24.4 75.9 36 8.7 47.7
10:30 1018 30.06 848 25.04 24.3 75.8 38 9.3 48.8
10:35 1018 30.06 848 25.04 23.5 74.4 38 8.5 47.2
10:40 1018 30.06 847 25.01 23.9 75.1 36 8.1 46.6
10:45 1018 30.06 847 25.01 24.6 76.3 33 7.5 45.6
10:50 1018 30.06 847 25.01 25.6 78 32 8 46.3
10:55 1018 30.06 847 25.01 26.2 79.2 32 8.5 47.2
11:00 1018 30.06 847 25.01 25.3 77.5 32 7.7 45.8
11:05 1018 30.06 847 25.01 25.4 77.6 34 8.4 47.1
11:10 1018 30.06 847 25.01 25.5 77.9 32 7.9 46.1
11:15 1018 30.06 847 25.01 25.5 77.9 33 8.5 47.2
11:20 1018 30.06 847 25.01 25.7 78.2 33 8.3 47
11:25 1018 30.06 847 25.01 26.3 79.4 31 8.3 46.9
11:30 1018 30.06 847 25.01 27 80.5 29 7.9 46.2
11:35 1017 30.03 847 25.01 27 80.5 28 7.1 44.8
11:40 1017 30.03 847 25.01 27.4 81.2 27 7.1 44.7
11:45 1017 30.03 846 24.98 27.5 81.5 26 6.5 43.8
11:50 1017 30.03 846 24.98 28 82.3 25 6.5 43.7
11:55 1017 30.03 846 24.98 28.5 83.2 24 6.1 43
12:00 1017 30.03 846 24.98 28.4 83 27 7.6 45.7
12:05 1017 30.03 846 24.98 28 82.5 26 7.1 44.9
12:10 1017 30.03 846 24.98 29.5 85 24 7.2 44.9
12:15 1017 30.03 846 24.98 28.9 83.9 25 7.3 45.2
12:20 1017 30.03 846 24.98 27.8 82 26 7.1 44.7
12:25 1017 30.03 846 24.98 28.4 83.1 26 7.5 45.5
12:30 1017 30.03 846 24.98 28.7 83.6 24 6.5 43.7
12:35 1017 30.03 846 24.98 29.4 84.8 24 6.9 44.4
12:40 1016 30 846 24.98 29.1 84.4 24 6.9 44.4
12:45 1016 30 846 24.98 29.3 84.7 24 6.7 44.1
12:50 1016 30 846 24.98 29.4 84.9 24 7.2 45
12:55 1016 30 846 24.98 29.5 85.1 24 7.4 45.3
13:00 1016 30 846 24.98 29.3 84.8 25 7.4 45.3
13:05 1016 30 846 24.98 29.9 85.8 26 8.5 47.3
13:10 1016 30 846 24.98 29.5 85 26 8.3 47
13:15 1016 30 845 24.95 29.6 85.4 25 8 46.5
13:20 1016 30 845 24.95 30.3 86.5 25 8.2 46.7
13:25 1016 30 845 24.95 30 86 24 7.8 46
13:30 1016 30 845 24.95 29.7 85.5 24 7.4 45.3
13:35 1016 30 845 24.95 29.6 85.4 24 7.2 45
13:40 1016 30 845 24.95 29.8 85.6 25 7.9 46.3
13:45 1016 30 845 24.95 28.8 83.8 26 7.9 46.2
13:50 1015 29.97 845 24.95 28.2 82.7 27 7.9 46.2
13:55 1016 30 845 24.95 27.9 82.2 27 7.3 45.2
14:00 1016 30 845 24.95 28.1 82.6 25 6.7 44
14:05 1016 30 845 24.95 27.9 82.2 26 7 44.6
14:10 1016 30 845 24.95 28.1 82.5 26 7 44.7
14:15 1016 30 845 24.95 28.2 82.7 26 7.1 44.8
14:20 1016 30 845 24.95 28 82.3 27 7.5 45.5
14:25 1016 30 845 24.95 27.7 81.9 27 7.1 44.7
14:30 1017 30.03 846 24.98 27.1 80.8 21 3.2 37.8
14:35 1017 30.03 846 24.98 27.4 81.3 29 8 46.5
14:40 1017 30.03 846 24.98 26.5 79.7 28 6.9 44.4
14:45 1017 30.03 846 24.98 25.7 78.2 33 8.2 46.8
14:50 1017 30.03 846 24.98 25 77 36 9.1 48.4
14:55 1017 30.03 846 24.98 25 77 39 10.2 50.4
15:00 1017 30.03 846 24.98 25.5 78 34 8.9 47.9
15:05 1016 30 846 24.98 26 78.7 33 8.5 47.3
15:10 1016 30 846 24.98 25.6 78 33 8.3 46.9
15:15 1016 30 846 24.98 25.7 78.2 32 8.1 46.6
15:20 1016 30 845 24.95 25.6 78 39 10.7 51.3
15:25 1016 30 845 24.95 25.1 77.1 40 10.7 51.3
15:30 1016 30 845 24.95 25 77 33 7.8 46.1
15:35 1016 30 845 24.95 25.4 77.8 33 8.5 47.2
15:40 1016 30 845 24.95 25.7 78.3 37 10 50.1
15:45 1016 30 845 24.95 25.2 77.3 35 9 48.2
15:50 1016 30 845 24.95 25.2 77.3 35 8.8 47.9
15:55 1016 30 845 24.95 25.5 77.8 36 9.5 49.1
16:00 1016 30 845 24.95 25.5 78 38 10.4 50.8
16:05 1016 30 845 24.95 25.9 78.7 35 9.7 49.5
16:10 1016 30 845 24.95 25.8 78.4 35 9.4 49
16:15 1016 30 845 24.95 25.8 78.4 37 10.2 50.4
16:20 1016 30 845 24.95 25.3 77.6 36 9.5 49.1
16:25 1016 30 845 24.95 25.2 77.4 39 10.6 51
16:30 1016 30 845 24.95 25.2 77.3 38 10.2 50.4
16:35 1016 30 845 24.95 25.7 78.2 37 10.3 50.6
16:40 1016 30 845 24.95 26.2 79.1 37 10.5 50.8
16:45 1016 30 845 24.95 26.5 79.6 35 9.9 49.8
16:50 1015 29.97 845 24.95 26.6 79.8 33 9.1 48.4
16:55 1015 29.97 845 24.95 26.3 79.3 35 9.7 49.4
17:00 1015 29.97 845 24.95 26.1 79 34 9.3 48.7
17:05 1015 29.97 845 24.95 26.1 79.1 34 9.4 49
17:10 1016 30 845 24.95 25.8 78.5 33 8.6 47.5
17:15 1016 30 845 24.95 25.3 77.5 35 9.1 48.3
17:20 1016 30 845 24.95 24.7 76.5 38 9.5 49.1
17:25 1015 29.97 845 24.95 24.3 75.8 40 10 50
17:30 1015 29.97 844 24.92 24.1 75.5 40 10 50.1
17:35 1015 29.97 844 24.92 24.2 75.5 40 9.9 49.7
17:40 1015 29.97 844 24.92 24.3 75.7 39 9.7 49.5
17:45 1015 29.97 844 24.92 24 75.3 39 9.5 49
17:50 1015 29.97 844 24.92 23.9 75 39 9.1 48.5
17:55 1015 29.97 845 24.95 23.9 75 39 9.4 48.9
18:00 1016 30 845 24.95 23.9 75 40 9.8 49.6
18:05 1017 30.03 846 24.98 23.6 74.5 44 10.7 51.3
18:10 1018 30.06 847 25.01 22.6 72.7 56 13.5 56.3
18:15 1018 30.06 847 25.01 20.7 69.2 66 14.3 57.7
18:20 1018 30.06 848 25.04 18.4 65.2 77 14.4 58
18:25 1019 30.09 848 25.04 17.2 62.9 82 14.1 57.4
18:30 1019 30.09 848 25.04 16.9 62.3 82 13.8 56.8
18:35 1019 30.09 848 25.04 16.8 62.2 81 13.5 56.2
18:40 1018 30.06 847 25.01 16.6 61.8 83 13.8 56.8
18:45 1018 30.06 847 25.01 16.4 61.6 85 14 57.1
18:50 1018 30.06 847 25.01 16.5 61.7 83 13.6 56.5
18:55 1018 30.06 847 25.01 16.6 61.9 81 13.3 56
19:00 1018 30.06 847 25.01 16.9 62.4 75 12.4 54.4
19:05 1018 30.06 847 25.01 17.2 62.9 77 13.1 55.5
19:10 1018 30.06 847 25.01 17.2 63 78 13.5 56.2
19:15 1018 30.06 847 25.01 17.1 62.7 80 13.6 56.5
19:20 1018 30.06 847 25.01 16.9 62.4 82 13.8 56.8
19:25 1018 30.06 848 25.04 16.8 62.3 81 13.6 56.5
19:30 1019 30.09 848 25.04 16.8 62.2 81 13.6 56.6
19:35 1019 30.09 848 25.04 16.8 62.2 79 13.2 55.8
19:40 1019 30.09 848 25.04 16.8 62.3 78 13.1 55.5
19:45 1018 30.06 847 25.01 16.9 62.4 78 13.1 55.7
19:50 1018 30.06 847 25.01 17 62.5 80 13.6 56.4
19:55 1018 30.06 847 25.01 16.9 62.4 82 13.9 56.9
20:00 1017 30.03 846 24.98 16.3 61.4 82 13.3 56
20:05 1017 30.03 847 25.01 16.5 61.7 81 13.3 56
20:10 1017 30.03 846 24.98 16.4 61.4 81 13.1 55.7
20:15 1017 30.03 846 24.98 16.3 61.3 83 13.3 56
20:20 1017 30.03 846 24.98 16.1 61 83 13.3 55.9
20:25 1017 30.03 847 25.01 16.2 61.1 81 13 55.4
20:30 1018 30.06 847 25.01 16.4 61.6 79 12.8 55.1
20:35 1018 30.06 847 25.01 16.6 61.8 77 12.6 54.7
20:40 1019 30.09 848 25.04 16.9 62.5 77 12.8 55.1
20:45 1019 30.09 848 25.04 17.1 62.8 76 13 55.4
20:50 1019 30.09 848 25.04 16.9 62.5 77 13 55.4
20:55 1019 30.09 848 25.04 16.8 62.2 80 13.4 56.1
21:00 1019 30.09 848 25.04 16.4 61.6 82 13.4 56.1
21:05 1019 30.09 848 25.04 16.1 61 85 13.5 56.4
21:10 1018 30.06 847 25.01 15.9 60.7 83 13.1 55.5
21:15 1018 30.06 847 25.01 15.9 60.7 86 13.6 56.5
21:20 1018 30.06 847 25.01 15.7 60.2 87 13.5 56.3
21:25 1018 30.06 847 25.01 15.6 60 87 13.5 56.2
21:30 1018 30.06 847 25.01 15.5 59.8 87 13.4 56.1
21:35 1017 30.03 847 25.01 15.5 59.9 85 13 55.4
21:40 1017 30.03 846 24.98 15.8 60.4 83 12.9 55.2
21:45 1017 30.03 847 25.01 15.8 60.4 84 13.1 55.6
21:50 1018 30.06 847 25.01 15.8 60.4 84 13.1 55.6
21:55 1018 30.06 847 25.01 15.8 60.4 81 12.6 54.6
22:00 1017 30.03 847 25.01 16 60.8 83 13.1 55.6
22:05 1017 30.03 846 24.98 15.7 60.3 81 12.5 54.5
22:10 1017 30.03 846 24.98 15.9 60.6 81 12.7 54.8
22:15 1017 30.03 846 24.98 16 60.9 79 12.4 54.4
22:20 1017 30.03 846 24.98 16.2 61.2 78 12.4 54.2
22:25 1017 30.03 846 24.98 16.5 61.6 74 11.9 53.4
22:30 1017 30.03 846 24.98 16.8 62.2 74 12.1 53.8
22:35 1017 30.03 846 24.98 16.8 62.3 74 12.2 54
22:40 1017 30.03 846 24.98 16.5 61.8 76 12.3 54.1
22:45 1017 30.03 846 24.98 16.5 61.6 76 12.3 54.2
22:50 1017 30.03 846 24.98 16.4 61.5 74 11.8 53.3
22:55 1017 30.03 846 24.98 16.5 61.7 76 12.3 54.1
23:00 1017 30.03 846 24.98 16.4 61.5 76 12.2 54
23:05 1017 30.03 846 24.98 16.4 61.4 77 12.3 54.1
23:10 1017 30.03 846 24.98 16.4 61.6 75 12.1 53.7
23:15 1016 30 846 24.98 16.6 61.8 74 12 53.6
23:20 1016 30 846 24.98 16.5 61.8 74 12 53.6
23:25 1016 30 846 24.98 16.5 61.8 74 12 53.6
23:30 1016 30 846 24.98 16.5 61.7 75 12.1 53.7
23:35 1016 30 846 24.98 16.5 61.7 74 11.9 53.4
23:40 1017 30.03 846 24.98 16.5 61.7 74 11.9 53.4
23:45 1017 30.03 846 24.98 16.5 61.8 74 11.9 53.4
23:50 1017 30.03 846 24.98 16.5 61.6 74 11.9 53.4
23:55 1017 30.03 846 24.98 16.4 61.6 74 11.7 53.1
24:00 1017 30.03 846 24.98 16.4 61.5 73 11.6 53